createdAt,value
2018-09-04T00:00:04.269Z,1013.26
2018-09-04T00:01:04.690Z,1013.26
2018-09-04T00:02:04.222Z,1013.22
2018-09-04T00:03:05.141Z,1013.23
2018-09-04T00:04:04.698Z,1013.23
2018-09-04T00:05:04.148Z,1013.18
2018-09-04T00:06:04.640Z,1013.20
2018-09-04T00:07:04.642Z,1013.18
2018-09-04T00:08:04.674Z,1013.14
2018-09-04T00:09:04.198Z,1013.19
2018-09-04T00:10:04.026Z,1013.18
2018-09-04T00:11:04.643Z,1013.13
2018-09-04T00:12:04.646Z,1013.09
2018-09-04T00:13:03.956Z,1013.12
2018-09-04T00:14:03.981Z,1013.11
2018-09-04T00:15:03.950Z,1013.06
2018-09-04T00:16:04.649Z,1013.09
2018-09-04T00:17:03.856Z,1013.08
2018-09-04T00:18:04.645Z,1013.07
2018-09-04T00:19:03.809Z,1013.06
2018-09-04T00:20:03.829Z,1013.05
2018-09-04T00:21:04.650Z,1013.02
2018-09-04T00:22:03.739Z,1013.01
2018-09-04T00:23:03.711Z,1012.99
2018-09-04T00:24:03.690Z,1013.01
2018-09-04T00:25:03.709Z,1012.99
2018-09-04T00:26:04.147Z,1012.94
2018-09-04T00:27:04.173Z,1013.00
2018-09-04T00:28:03.588Z,1013.03
2018-09-04T00:29:04.148Z,1013.02
2018-09-04T00:30:03.581Z,1012.97
2018-09-04T00:31:04.152Z,1012.97
2018-09-04T00:32:04.149Z,1012.98
2018-09-04T00:33:04.151Z,1013.02
2018-09-04T00:34:03.447Z,1012.93
2018-09-04T00:35:03.719Z,1013.00
2018-09-04T00:36:04.149Z,1013.00
2018-09-04T00:37:03.367Z,1013.00
2018-09-04T00:38:03.347Z,1013.02
2018-09-04T00:39:03.702Z,1013.01
2018-09-04T00:40:03.706Z,1013.04
2018-09-04T00:41:04.160Z,1013.00
2018-09-04T00:42:04.156Z,1013.00
2018-09-04T00:43:04.153Z,1013.01
2018-09-04T00:44:03.242Z,1013.03
2018-09-04T00:45:03.174Z,1013.04
2018-09-04T00:46:03.651Z,1013.02
2018-09-04T00:47:03.654Z,1013.02
2018-09-04T00:48:03.097Z,1013.04
2018-09-04T00:49:03.126Z,1013.04
2018-09-04T00:50:03.055Z,1013.05
2018-09-04T00:51:03.659Z,1013.06
2018-09-04T00:52:03.008Z,1013.05
2018-09-04T00:53:03.654Z,1013.06
2018-09-04T00:54:03.010Z,1013.06
2018-09-04T00:55:02.929Z,1013.02
2018-09-04T00:56:02.899Z,1013.04
2018-09-04T00:57:03.656Z,1013.05
2018-09-04T00:58:02.854Z,1013.04
2018-09-04T00:59:03.272Z,1013.07
2018-09-04T01:00:03.662Z,1013.06
2018-09-04T01:01:03.656Z,1013.05
2018-09-04T01:02:02.761Z,1013.07
2018-09-04T01:03:03.658Z,1013.06
2018-09-04T01:04:03.209Z,1013.09
2018-09-04T01:05:03.210Z,1013.08
2018-09-04T01:06:02.659Z,1013.06
2018-09-04T01:07:02.641Z,1013.09
2018-09-04T01:08:02.608Z,1013.11
2018-09-04T01:09:02.581Z,1013.10
2018-09-04T01:10:02.717Z,1013.06
2018-09-04T01:11:02.555Z,1013.10
2018-09-04T01:12:02.526Z,1013.11
2018-09-04T01:13:02.484Z,1013.10
2018-09-04T01:14:02.715Z,1013.10
2018-09-04T01:15:02.434Z,1013.10
2018-09-04T01:16:03.162Z,1013.14
2018-09-04T01:17:02.383Z,1013.10
2018-09-04T01:18:02.359Z,1013.12
2018-09-04T01:19:02.375Z,1013.09
2018-09-04T01:20:03.162Z,1013.11
2018-09-04T01:21:02.714Z,1013.08
2018-09-04T01:22:03.160Z,1013.05
2018-09-04T01:23:02.241Z,1013.11
2018-09-04T01:24:02.210Z,1013.07
2018-09-04T01:25:02.191Z,1013.09
2018-09-04T01:26:02.207Z,1013.04
2018-09-04T01:27:02.141Z,1013.05
2018-09-04T01:28:02.119Z,1013.07
2018-09-04T01:29:02.088Z,1013.08
2018-09-04T01:30:02.105Z,1013.10
2018-09-04T01:31:02.082Z,1013.09
2018-09-04T01:32:02.016Z,1013.12
2018-09-04T01:33:02.662Z,1013.12
2018-09-04T01:34:01.968Z,1013.14
2018-09-04T01:35:02.669Z,1013.11
2018-09-04T01:36:02.217Z,1013.15
2018-09-04T01:37:02.665Z,1013.15
2018-09-04T01:38:01.880Z,1013.19
2018-09-04T01:39:02.665Z,1013.17
2018-09-04T01:40:01.859Z,1013.18
2018-09-04T01:41:01.794Z,1013.18
2018-09-04T01:42:01.764Z,1013.21
2018-09-04T01:43:01.796Z,1013.21
2018-09-04T01:44:02.677Z,1013.16
2018-09-04T01:45:02.236Z,1013.16
2018-09-04T01:46:02.171Z,1013.13
2018-09-04T01:47:02.164Z,1013.20
2018-09-04T01:48:02.169Z,1013.14
2018-09-04T01:49:02.172Z,1013.09
2018-09-04T01:50:01.722Z,1013.13
2018-09-04T01:51:01.543Z,1013.15
2018-09-04T01:52:02.175Z,1013.11
2018-09-04T01:53:02.173Z,1013.11
2018-09-04T01:54:01.723Z,1013.08
2018-09-04T01:55:02.171Z,1013.12
2018-09-04T01:56:02.170Z,1013.14
2018-09-04T01:57:01.395Z,1013.13
2018-09-04T01:58:01.742Z,1013.10
2018-09-04T01:59:02.167Z,1013.17
2018-09-04T02:00:01.315Z,1013.12
2018-09-04T02:01:01.289Z,1013.11
2018-09-04T02:02:02.188Z,1013.14
2018-09-04T02:03:01.724Z,1013.13
2018-09-04T02:04:01.218Z,1013.17
2018-09-04T02:05:02.171Z,1013.11
2018-09-04T02:06:01.233Z,1013.13
2018-09-04T02:07:01.671Z,1013.15
2018-09-04T02:08:01.670Z,1013.11
2018-09-04T02:09:01.118Z,1013.08
2018-09-04T02:10:01.681Z,1013.05
2018-09-04T02:11:01.724Z,1013.08
2018-09-04T02:12:01.707Z,1013.07
2018-09-04T02:13:01.679Z,1013.05
2018-09-04T02:14:01.233Z,1013.04
2018-09-04T02:15:00.940Z,1013.06
2018-09-04T02:16:01.675Z,1013.03
2018-09-04T02:17:00.886Z,1013.04
2018-09-04T02:18:01.675Z,1013.06
2018-09-04T02:19:00.897Z,1013.06
2018-09-04T02:20:00.828Z,1013.04
2018-09-04T02:21:01.676Z,1013.05
2018-09-04T02:22:01.685Z,1013.08
2018-09-04T02:23:01.671Z,1013.09
2018-09-04T02:24:01.229Z,1013.07
2018-09-04T02:25:01.676Z,1013.07
2018-09-04T02:26:00.730Z,1013.06
2018-09-04T02:27:01.174Z,1013.02
2018-09-04T02:28:01.176Z,1013.02
2018-09-04T02:29:00.584Z,1013.03
2018-09-04T02:30:00.728Z,1013.01
2018-09-04T02:31:00.738Z,1013.00
2018-09-04T02:32:00.509Z,1013.04
2018-09-04T02:33:01.182Z,1013.03
2018-09-04T02:34:01.178Z,1013.05
2018-09-04T02:35:01.201Z,1013.02
2018-09-04T02:36:01.234Z,1013.00
2018-09-04T02:37:01.176Z,1013.00
2018-09-04T02:38:00.372Z,1013.00
2018-09-04T02:39:00.376Z,1013.00
2018-09-04T02:40:01.182Z,1013.00
2018-09-04T02:41:00.285Z,1012.98
2018-09-04T02:42:01.194Z,1012.97
2018-09-04T02:43:00.735Z,1012.97
2018-09-04T02:44:00.209Z,1013.01
2018-09-04T02:45:00.680Z,1013.01
2018-09-04T02:46:00.229Z,1013.02
2018-09-04T02:47:00.133Z,1013.01
2018-09-04T02:48:00.683Z,1013.00
2018-09-04T02:49:00.232Z,1013.00
2018-09-04T02:50:00.588Z,1012.99
2018-09-04T02:51:00.679Z,1012.99
2018-09-04T02:52:00.004Z,1012.96
2018-09-04T02:52:59.976Z,1013.00
2018-09-04T02:54:00.007Z,1013.03
2018-09-04T02:54:59.926Z,1012.98
2018-09-04T02:56:00.682Z,1013.02
2018-09-04T02:56:59.880Z,1013.01
2018-09-04T02:58:00.682Z,1013.02
2018-09-04T02:59:00.243Z,1013.05
2018-09-04T02:59:59.800Z,1013.05
2018-09-04T03:00:59.779Z,1013.03
2018-09-04T03:01:59.751Z,1013.06
2018-09-04T03:03:00.232Z,1013.03
2018-09-04T03:04:00.682Z,1013.03
2018-09-04T03:04:59.719Z,1013.06
2018-09-04T03:06:00.184Z,1013.04
2018-09-04T03:07:00.185Z,1013.02
2018-09-04T03:07:59.597Z,1012.95
2018-09-04T03:08:59.573Z,1012.99
2018-09-04T03:09:59.738Z,1013.01
2018-09-04T03:11:00.183Z,1013.02
2018-09-04T03:12:00.187Z,1013.06
2018-09-04T03:13:00.189Z,1013.03
2018-09-04T03:13:59.520Z,1013.06
2018-09-04T03:14:59.736Z,1013.05
2018-09-04T03:16:00.184Z,1013.06
2018-09-04T03:17:00.184Z,1013.07
2018-09-04T03:17:59.343Z,1013.06
2018-09-04T03:19:00.186Z,1013.05
2018-09-04T03:19:59.338Z,1013.07
2018-09-04T03:21:00.187Z,1013.04
2018-09-04T03:22:00.188Z,1013.06
2018-09-04T03:23:00.228Z,1013.07
2018-09-04T03:23:59.192Z,1013.06
2018-09-04T03:24:59.250Z,1013.09
2018-09-04T03:25:59.693Z,1013.09
2018-09-04T03:26:59.119Z,1013.08
2018-09-04T03:27:59.712Z,1013.05
2018-09-04T03:28:59.688Z,1013.05
2018-09-04T03:29:59.261Z,1013.05
2018-09-04T03:30:59.696Z,1013.08
2018-09-04T03:31:59.690Z,1013.09
2018-09-04T03:32:58.974Z,1013.10
2018-09-04T03:33:58.946Z,1013.09
2018-09-04T03:34:59.253Z,1013.07
2018-09-04T03:35:58.901Z,1013.07
2018-09-04T03:37:01.690Z,1013.07
2018-09-04T03:37:58.854Z,1013.09
2018-09-04T03:38:59.710Z,1013.14
2018-09-04T03:39:59.259Z,1013.12
2018-09-04T03:40:58.762Z,1013.12
2018-09-04T03:41:58.743Z,1013.09
2018-09-04T03:42:58.709Z,1013.12
2018-09-04T03:43:59.192Z,1013.13
2018-09-04T03:44:58.707Z,1013.12
2018-09-04T03:45:58.755Z,1013.14
2018-09-04T03:46:58.609Z,1013.12
2018-09-04T03:47:58.585Z,1013.14
2018-09-04T03:48:59.195Z,1013.10
2018-09-04T03:49:58.534Z,1013.13
2018-09-04T03:50:58.549Z,1013.15
2018-09-04T03:51:58.517Z,1013.17
2018-09-04T03:52:58.462Z,1013.17
2018-09-04T03:53:58.429Z,1013.18
2018-09-04T03:54:59.195Z,1013.16
2018-09-04T03:55:59.200Z,1013.18
2018-09-04T03:56:58.399Z,1013.17
2018-09-04T03:57:58.327Z,1013.15
2018-09-04T03:58:59.195Z,1013.16
2018-09-04T03:59:58.276Z,1013.16
2018-09-04T04:00:59.197Z,1013.14
2018-09-04T04:01:58.750Z,1013.12
2018-09-04T04:02:58.200Z,1013.16
2018-09-04T04:03:58.176Z,1013.13
2018-09-04T04:04:58.697Z,1013.12
2018-09-04T04:05:58.696Z,1013.15
2018-09-04T04:06:58.173Z,1013.11
2018-09-04T04:07:58.081Z,1013.12
2018-09-04T04:08:58.051Z,1013.14
2018-09-04T04:09:58.702Z,1013.15
2018-09-04T04:10:58.699Z,1013.19
2018-09-04T04:11:58.353Z,1013.21
2018-09-04T04:12:57.947Z,1013.19
2018-09-04T04:13:57.919Z,1013.24
2018-09-04T04:14:57.902Z,1013.23
2018-09-04T04:15:57.866Z,1013.28
2018-09-04T04:16:57.884Z,1013.21
2018-09-04T04:17:57.857Z,1013.23
2018-09-04T04:18:57.793Z,1013.22
2018-09-04T04:19:57.766Z,1013.23
2018-09-04T04:20:57.740Z,1013.23
2018-09-04T04:21:57.718Z,1013.26
2018-09-04T04:22:57.733Z,1013.25
2018-09-04T04:23:57.734Z,1013.26
2018-09-04T04:24:57.636Z,1013.24
2018-09-04T04:25:57.618Z,1013.23
2018-09-04T04:26:57.591Z,1013.20
2018-09-04T04:27:57.606Z,1013.24
2018-09-04T04:28:58.204Z,1013.27
2018-09-04T04:29:57.509Z,1013.25
2018-09-04T04:30:57.500Z,1013.27
2018-09-04T04:31:57.457Z,1013.26
2018-09-04T04:32:57.560Z,1013.26
2018-09-04T04:33:57.406Z,1013.28
2018-09-04T04:34:57.396Z,1013.27
2018-09-04T04:35:57.358Z,1013.27
2018-09-04T04:36:57.332Z,1013.29
2018-09-04T04:37:57.352Z,1013.32
2018-09-04T04:38:57.763Z,1013.29
2018-09-04T04:39:57.284Z,1013.32
2018-09-04T04:40:57.231Z,1013.32
2018-09-04T04:41:57.201Z,1013.34
2018-09-04T04:42:57.179Z,1013.35
2018-09-04T04:43:57.241Z,1013.37
2018-09-04T04:44:57.149Z,1013.39
2018-09-04T04:45:57.100Z,1013.39
2018-09-04T04:46:57.080Z,1013.38
2018-09-04T04:47:57.193Z,1013.36
2018-09-04T04:48:57.077Z,1013.39
2018-09-04T04:49:57.001Z,1013.39
2018-09-04T04:50:56.977Z,1013.41
2018-09-04T04:51:56.966Z,1013.39
2018-09-04T04:52:56.929Z,1013.38
2018-09-04T04:53:56.952Z,1013.41
2018-09-04T04:54:57.615Z,1013.40
2018-09-04T04:55:56.848Z,1013.39
2018-09-04T04:56:56.821Z,1013.39
2018-09-04T04:57:56.803Z,1013.40
2018-09-04T04:58:57.260Z,1013.40
2018-09-04T04:59:56.746Z,1013.41
2018-09-04T05:00:56.717Z,1013.43
2018-09-04T05:01:56.694Z,1013.44
2018-09-04T05:02:56.667Z,1013.42
2018-09-04T05:03:56.682Z,1013.45
2018-09-04T05:04:56.621Z,1013.46
2018-09-04T05:05:56.590Z,1013.47
2018-09-04T05:06:57.208Z,1013.47
2018-09-04T05:07:56.580Z,1013.47
2018-09-04T05:08:56.516Z,1013.52
2018-09-04T05:09:56.543Z,1013.55
2018-09-04T05:10:56.514Z,1013.54
2018-09-04T05:11:56.442Z,1013.53
2018-09-04T05:12:56.468Z,1013.55
2018-09-04T05:13:56.396Z,1013.55
2018-09-04T05:14:56.365Z,1013.55
2018-09-04T05:15:56.337Z,1013.51
2018-09-04T05:16:56.317Z,1013.51
2018-09-04T05:17:56.346Z,1013.52
2018-09-04T05:18:56.264Z,1013.54
2018-09-04T05:19:56.241Z,1013.55
2018-09-04T05:20:56.214Z,1013.54
2018-09-04T05:21:56.189Z,1013.55
2018-09-04T05:22:56.220Z,1013.51
2018-09-04T05:23:56.138Z,1013.54
2018-09-04T05:24:56.125Z,1013.53
2018-09-04T05:25:56.089Z,1013.57
2018-09-04T05:26:56.066Z,1013.57
2018-09-04T05:27:56.092Z,1013.52
2018-09-04T05:28:56.039Z,1013.53
2018-09-04T05:29:55.995Z,1013.59
2018-09-04T05:30:56.716Z,1013.57
2018-09-04T05:31:56.718Z,1013.56
2018-09-04T05:32:55.972Z,1013.58
2018-09-04T05:33:56.714Z,1013.59
2018-09-04T05:34:55.864Z,1013.60
2018-09-04T05:35:55.839Z,1013.61
2018-09-04T05:36:56.719Z,1013.64
2018-09-04T05:37:55.835Z,1013.62
2018-09-04T05:38:55.811Z,1013.61
2018-09-04T05:39:55.736Z,1013.60
2018-09-04T05:40:55.708Z,1013.62
2018-09-04T05:41:55.684Z,1013.63
2018-09-04T05:42:56.216Z,1013.65
2018-09-04T05:43:55.691Z,1013.63
2018-09-04T05:44:55.611Z,1013.56
2018-09-04T05:45:56.215Z,1013.58
2018-09-04T05:46:55.560Z,1013.55
2018-09-04T05:47:55.541Z,1013.53
2018-09-04T05:48:55.767Z,1013.54
2018-09-04T05:49:55.767Z,1013.54
2018-09-04T05:50:56.222Z,1013.55
2018-09-04T05:51:56.225Z,1013.58
2018-09-04T05:52:55.410Z,1013.53
2018-09-04T05:53:55.387Z,1013.51
2018-09-04T05:54:55.410Z,1013.53
2018-09-04T05:55:56.220Z,1013.56
2018-09-04T05:56:55.358Z,1013.56
2018-09-04T05:57:56.221Z,1013.56
2018-09-04T05:58:55.267Z,1013.58
2018-09-04T05:59:55.239Z,1013.58
2018-09-04T06:00:55.213Z,1013.57
2018-09-04T06:01:55.280Z,1013.60
2018-09-04T06:02:55.164Z,1013.61
2018-09-04T06:03:55.149Z,1013.59
2018-09-04T06:04:55.114Z,1013.60
2018-09-04T06:05:55.731Z,1013.58
2018-09-04T06:06:55.117Z,1013.61
2018-09-04T06:07:55.725Z,1013.59
2018-09-04T06:08:55.063Z,1013.61
2018-09-04T06:09:54.993Z,1013.61
2018-09-04T06:10:54.968Z,1013.58
2018-09-04T06:11:54.944Z,1013.60
2018-09-04T06:12:54.917Z,1013.62
2018-09-04T06:13:54.940Z,1013.59
2018-09-04T06:14:54.876Z,1013.57
2018-09-04T06:15:54.845Z,1013.61
2018-09-04T06:16:54.817Z,1013.59
2018-09-04T06:17:54.803Z,1013.59
2018-09-04T06:18:54.815Z,1013.60
2018-09-04T06:19:55.744Z,1013.65
2018-09-04T06:20:54.725Z,1013.64
2018-09-04T06:21:54.695Z,1013.62
2018-09-04T06:22:54.674Z,1013.60
2018-09-04T06:23:54.692Z,1013.58
2018-09-04T06:24:54.624Z,1013.54
2018-09-04T06:25:54.598Z,1013.58
2018-09-04T06:26:54.575Z,1013.53
2018-09-04T06:27:54.613Z,1013.53
2018-09-04T06:28:54.569Z,1013.53
2018-09-04T06:29:54.501Z,1013.54
2018-09-04T06:30:54.474Z,1013.56
2018-09-04T06:31:54.450Z,1013.52
2018-09-04T06:32:54.470Z,1013.55
2018-09-04T06:33:54.407Z,1013.56
2018-09-04T06:34:54.379Z,1013.57
2018-09-04T06:35:55.230Z,1013.60
2018-09-04T06:36:54.373Z,1013.60
2018-09-04T06:37:54.309Z,1013.64
2018-09-04T06:38:54.329Z,1013.65
2018-09-04T06:39:55.235Z,1013.62
2018-09-04T06:40:54.287Z,1013.66
2018-09-04T06:41:54.210Z,1013.67
2018-09-04T06:42:54.216Z,1013.70
2018-09-04T06:43:54.162Z,1013.69
2018-09-04T06:44:54.132Z,1013.72
2018-09-04T06:45:54.286Z,1013.69
2018-09-04T06:46:54.089Z,1013.67
2018-09-04T06:47:54.059Z,1013.71
2018-09-04T06:48:54.036Z,1013.68
2018-09-04T06:49:54.286Z,1013.67
2018-09-04T06:50:53.989Z,1013.68
2018-09-04T06:51:54.006Z,1013.66
2018-09-04T06:52:53.944Z,1013.69
2018-09-04T06:53:53.954Z,1013.66
2018-09-04T06:54:53.898Z,1013.67
2018-09-04T06:55:53.921Z,1013.63
2018-09-04T06:56:53.852Z,1013.68
2018-09-04T06:57:53.872Z,1013.66
2018-09-04T06:58:53.841Z,1013.66
2018-09-04T06:59:54.737Z,1013.69
2018-09-04T07:00:53.750Z,1013.65
2018-09-04T07:01:53.763Z,1013.68
2018-09-04T07:02:53.702Z,1013.68
2018-09-04T07:03:53.793Z,1013.65
2018-09-04T07:04:53.654Z,1013.65
2018-09-04T07:05:53.719Z,1013.64
2018-09-04T07:06:53.610Z,1013.64
2018-09-04T07:07:53.581Z,1013.68
2018-09-04T07:08:53.558Z,1013.70
2018-09-04T07:09:53.535Z,1013.66
2018-09-04T07:10:53.566Z,1013.70
2018-09-04T07:11:54.238Z,1013.67
2018-09-04T07:12:53.467Z,1013.69
2018-09-04T07:13:53.449Z,1013.69
2018-09-04T07:14:54.268Z,1013.71
2018-09-04T07:15:53.497Z,1013.73
2018-09-04T07:16:53.384Z,1013.71
2018-09-04T07:17:53.800Z,1013.68
2018-09-04T07:18:53.321Z,1013.72
2018-09-04T07:19:53.305Z,1013.69
2018-09-04T07:20:53.275Z,1013.72
2018-09-04T07:21:53.253Z,1013.70
2018-09-04T07:22:53.282Z,1013.76
2018-09-04T07:23:53.210Z,1013.77
2018-09-04T07:24:53.197Z,1013.79
2018-09-04T07:25:53.159Z,1013.80
2018-09-04T07:26:53.141Z,1013.82
2018-09-04T07:27:53.168Z,1013.80
2018-09-04T07:28:53.089Z,1013.82
2018-09-04T07:29:53.741Z,1013.82
2018-09-04T07:30:53.048Z,1013.81
2018-09-04T07:31:53.767Z,1013.81
2018-09-04T07:32:53.045Z,1013.85
2018-09-04T07:33:53.016Z,1013.84
2018-09-04T07:34:52.955Z,1013.82
2018-09-04T07:35:53.743Z,1013.81
2018-09-04T07:36:52.906Z,1013.82
2018-09-04T07:37:52.882Z,1013.78
2018-09-04T07:38:52.905Z,1013.84
2018-09-04T07:39:52.838Z,1013.77
2018-09-04T07:40:52.815Z,1013.80
2018-09-04T07:41:52.797Z,1013.80
2018-09-04T07:42:52.773Z,1013.78
2018-09-04T07:43:52.791Z,1013.80
2018-09-04T07:44:52.743Z,1013.76
2018-09-04T07:45:52.701Z,1013.77
2018-09-04T07:46:52.681Z,1013.77
2018-09-04T07:47:52.812Z,1013.81
2018-09-04T07:48:52.635Z,1013.76
2018-09-04T07:49:52.615Z,1013.75
2018-09-04T07:50:52.590Z,1013.74
2018-09-04T07:51:52.566Z,1013.72
2018-09-04T07:52:52.580Z,1013.74
2018-09-04T07:53:53.294Z,1013.71
2018-09-04T07:54:52.496Z,1013.75
2018-09-04T07:55:52.493Z,1013.73
2018-09-04T07:56:53.268Z,1013.74
2018-09-04T07:57:52.470Z,1013.73
2018-09-04T07:58:52.809Z,1013.75
2018-09-04T07:59:52.382Z,1013.77
2018-09-04T08:00:52.402Z,1013.78
2018-09-04T08:01:53.255Z,1013.78
2018-09-04T08:02:52.315Z,1013.85
2018-09-04T08:03:52.357Z,1013.77
2018-09-04T08:04:53.254Z,1013.79
2018-09-04T08:05:52.773Z,1013.82
2018-09-04T08:06:52.226Z,1013.81
2018-09-04T08:07:52.204Z,1013.77
2018-09-04T08:08:52.226Z,1013.77
2018-09-04T08:09:52.160Z,1013.77
2018-09-04T08:10:52.180Z,1013.82
2018-09-04T08:11:52.113Z,1013.81
2018-09-04T08:12:52.092Z,1013.79
2018-09-04T08:13:52.117Z,1013.73
2018-09-04T08:14:52.765Z,1013.79
2018-09-04T08:15:52.072Z,1013.79
2018-09-04T08:16:52.007Z,1013.74
2018-09-04T08:17:51.984Z,1013.77
2018-09-04T08:18:52.716Z,1013.79
2018-09-04T08:19:52.002Z,1013.79
2018-09-04T08:20:51.968Z,1013.80
2018-09-04T08:21:51.896Z,1013.77
2018-09-04T08:22:52.762Z,1013.79
2018-09-04T08:23:51.846Z,1013.80
2018-09-04T08:24:51.869Z,1013.82
2018-09-04T08:25:53.664Z,1013.80
2018-09-04T08:26:51.826Z,1013.79
2018-09-04T08:27:52.261Z,1013.81
2018-09-04T08:28:51.787Z,1013.77
2018-09-04T08:29:51.722Z,1013.79
2018-09-04T08:30:51.698Z,1013.77
2018-09-04T08:31:51.817Z,1013.74
2018-09-04T08:32:52.342Z,1013.76
2018-09-04T08:33:51.628Z,1013.70
2018-09-04T08:34:51.619Z,1013.73
2018-09-04T08:35:51.586Z,1013.71
2018-09-04T08:36:51.823Z,1013.70
2018-09-04T08:37:51.541Z,1013.69
2018-09-04T08:38:51.520Z,1013.68
2018-09-04T08:39:51.536Z,1013.69
2018-09-04T08:40:52.264Z,1013.68
2018-09-04T08:41:51.497Z,1013.66
2018-09-04T08:42:51.434Z,1013.63
2018-09-04T08:43:51.408Z,1013.59
2018-09-04T08:44:51.393Z,1013.62
2018-09-04T08:45:51.375Z,1013.59
2018-09-04T08:46:51.834Z,1013.60
2018-09-04T08:47:51.412Z,1013.60
2018-09-04T08:48:51.301Z,1013.60
2018-09-04T08:49:51.277Z,1013.63
2018-09-04T08:50:51.256Z,1013.60
2018-09-04T08:51:51.286Z,1013.61
2018-09-04T08:52:51.208Z,1013.57
2018-09-04T08:53:51.762Z,1013.59
2018-09-04T08:54:51.768Z,1013.64
2018-09-04T08:55:51.143Z,1013.60
2018-09-04T08:56:51.419Z,1013.56
2018-09-04T08:57:51.100Z,1013.58
2018-09-04T08:58:51.081Z,1013.56
2018-09-04T08:59:51.078Z,1013.50
2018-09-04T09:00:51.035Z,1013.49
2018-09-04T09:01:51.049Z,1013.50
2018-09-04T09:02:51.766Z,1013.50
2018-09-04T09:03:51.085Z,1013.48
2018-09-04T09:04:50.950Z,1013.47
2018-09-04T09:05:50.925Z,1013.48
2018-09-04T09:06:50.908Z,1013.47
2018-09-04T09:07:50.884Z,1013.49
2018-09-04T09:08:50.925Z,1013.44
2018-09-04T09:09:51.834Z,1013.46
2018-09-04T09:10:50.822Z,1013.46
2018-09-04T09:11:50.795Z,1013.44
2018-09-04T09:12:50.820Z,1013.43
2018-09-04T09:13:50.753Z,1013.42
2018-09-04T09:14:50.733Z,1013.44
2018-09-04T09:15:50.715Z,1013.45
2018-09-04T09:16:50.762Z,1013.42
2018-09-04T09:17:50.834Z,1013.38
2018-09-04T09:18:50.648Z,1013.38
2018-09-04T09:19:50.627Z,1013.43
2018-09-04T09:20:50.611Z,1013.40
2018-09-04T09:21:50.589Z,1013.40
2018-09-04T09:22:50.611Z,1013.39
2018-09-04T09:23:50.544Z,1013.36
2018-09-04T09:24:50.570Z,1013.35
2018-09-04T09:25:50.500Z,1013.34
2018-09-04T09:26:50.497Z,1013.37
2018-09-04T09:27:51.273Z,1013.34
2018-09-04T09:28:50.480Z,1013.38
2018-09-04T09:29:50.416Z,1013.22
2018-09-04T09:30:50.396Z,1013.34
2018-09-04T09:31:50.371Z,1013.30
2018-09-04T09:32:51.284Z,1013.33
2018-09-04T09:33:50.367Z,1013.30
2018-09-04T09:34:50.312Z,1013.32
2018-09-04T09:35:51.278Z,1013.31
2018-09-04T09:36:50.419Z,1013.26
2018-09-04T09:37:50.253Z,1013.27
2018-09-04T09:38:50.285Z,1013.25
2018-09-04T09:39:50.226Z,1013.23
2018-09-04T09:40:50.186Z,1013.24
2018-09-04T09:41:50.167Z,1013.21
2018-09-04T09:42:50.147Z,1013.24
2018-09-04T09:43:50.162Z,1013.24
2018-09-04T09:44:50.102Z,1013.28
2018-09-04T09:45:50.079Z,1013.29
2018-09-04T09:46:50.066Z,1013.28
2018-09-04T09:47:50.037Z,1013.24
2018-09-04T09:48:50.086Z,1013.25
2018-09-04T09:49:50.000Z,1013.24
2018-09-04T09:50:50.044Z,1013.19
2018-09-04T09:51:50.779Z,1013.16
2018-09-04T09:52:49.969Z,1013.13
2018-09-04T09:53:49.960Z,1013.15
2018-09-04T09:54:49.914Z,1013.16
2018-09-04T09:55:50.891Z,1013.12
2018-09-04T09:56:49.864Z,1013.14
2018-09-04T09:57:49.833Z,1013.11
2018-09-04T09:58:49.877Z,1013.13
2018-09-04T09:59:49.876Z,1013.13
2018-09-04T10:00:49.777Z,1013.05
2018-09-04T10:01:49.751Z,1013.09
2018-09-04T10:02:49.728Z,1013.15
2018-09-04T10:03:49.709Z,1013.10
2018-09-04T10:04:49.730Z,1013.08
2018-09-04T10:05:50.290Z,1013.07
2018-09-04T10:06:49.656Z,1013.08
2018-09-04T10:07:49.743Z,1013.09
2018-09-04T10:08:49.637Z,1013.12
2018-09-04T10:09:49.881Z,1013.15
2018-09-04T10:10:49.610Z,1013.15
2018-09-04T10:11:49.540Z,1013.16
2018-09-04T10:12:49.523Z,1013.17
2018-09-04T10:13:49.500Z,1013.16
2018-09-04T10:14:50.302Z,1013.10
2018-09-04T10:15:49.512Z,1013.11
2018-09-04T10:16:49.440Z,1013.12
2018-09-04T10:17:50.290Z,1013.11
2018-09-04T10:18:49.440Z,1013.16
2018-09-04T10:19:49.428Z,1013.12
2018-09-04T10:20:49.408Z,1013.11
2018-09-04T10:21:49.332Z,1013.09
2018-09-04T10:22:49.361Z,1013.13
2018-09-04T10:23:49.291Z,1013.12
2018-09-04T10:24:49.270Z,1013.10
2018-09-04T10:25:49.254Z,1013.12
2018-09-04T10:26:49.230Z,1013.11
2018-09-04T10:27:49.273Z,1013.17
2018-09-04T10:28:49.206Z,1013.07
2018-09-04T10:29:49.795Z,1013.14
2018-09-04T10:30:49.150Z,1013.16
2018-09-04T10:31:49.131Z,1013.14
2018-09-04T10:32:49.185Z,1013.12
2018-09-04T10:33:49.790Z,1013.13
2018-09-04T10:34:49.071Z,1013.13
2018-09-04T10:35:49.046Z,1013.16
2018-09-04T10:36:49.794Z,1013.13
2018-09-04T10:37:49.052Z,1013.10
2018-09-04T10:38:49.848Z,1013.15
2018-09-04T10:39:48.965Z,1013.15
2018-09-04T10:40:48.945Z,1013.19
2018-09-04T10:41:48.925Z,1013.13
2018-09-04T10:42:48.907Z,1013.16
2018-09-04T10:43:48.932Z,1013.13
2018-09-04T10:44:48.867Z,1013.13
2018-09-04T10:45:48.846Z,1013.20
2018-09-04T10:46:48.828Z,1013.19
2018-09-04T10:47:48.849Z,1013.14
2018-09-04T10:48:48.784Z,1013.14
2018-09-04T10:49:48.762Z,1013.10
2018-09-04T10:50:48.790Z,1013.10
2018-09-04T10:51:48.727Z,1013.10
2018-09-04T10:52:48.701Z,1013.09
2018-09-04T10:53:48.685Z,1013.09
2018-09-04T10:54:48.675Z,1013.10
2018-09-04T10:55:48.962Z,1013.05
2018-09-04T10:56:48.634Z,1013.03
2018-09-04T10:57:48.661Z,1013.03
2018-09-04T10:58:48.589Z,1012.96
2018-09-04T10:59:48.565Z,1012.97
2018-09-04T11:00:48.868Z,1012.98
2018-09-04T11:01:48.531Z,1012.97
2018-09-04T11:02:48.504Z,1012.96
2018-09-04T11:03:48.490Z,1012.93
2018-09-04T11:04:49.303Z,1012.88
2018-09-04T11:05:48.508Z,1012.88
2018-09-04T11:06:48.425Z,1012.89
2018-09-04T11:07:48.411Z,1012.87
2018-09-04T11:08:48.388Z,1012.83
2018-09-04T11:09:48.549Z,1012.89
2018-09-04T11:10:48.856Z,1012.88
2018-09-04T11:11:48.336Z,1012.83
2018-09-04T11:12:49.304Z,1012.89
2018-09-04T11:13:48.310Z,1012.90
2018-09-04T11:14:48.278Z,1012.88
2018-09-04T11:15:48.298Z,1012.91
2018-09-04T11:16:48.357Z,1012.88
2018-09-04T11:17:48.221Z,1012.84
2018-09-04T11:18:48.202Z,1012.87
2018-09-04T11:19:48.806Z,1012.85
2018-09-04T11:20:48.203Z,1012.86
2018-09-04T11:21:48.197Z,1012.88
2018-09-04T11:22:48.174Z,1012.88
2018-09-04T11:23:48.174Z,1012.90
2018-09-04T11:24:48.092Z,1012.85
2018-09-04T11:25:48.808Z,1012.89
2018-09-04T11:26:48.119Z,1012.86
2018-09-04T11:27:48.035Z,1012.88
2018-09-04T11:28:48.015Z,1012.93
2018-09-04T11:29:48.002Z,1012.86
2018-09-04T11:30:48.042Z,1012.88
2018-09-04T11:31:48.023Z,1012.86
2018-09-04T11:32:47.945Z,1012.82
2018-09-04T11:33:47.922Z,1012.84
2018-09-04T11:34:47.906Z,1012.86
2018-09-04T11:35:47.890Z,1012.82
2018-09-04T11:36:47.913Z,1012.84
2018-09-04T11:37:47.899Z,1012.82
2018-09-04T11:38:47.826Z,1012.85
2018-09-04T11:39:47.856Z,1012.83
2018-09-04T11:40:47.862Z,1012.83
2018-09-04T11:41:47.779Z,1012.82
2018-09-04T11:42:48.319Z,1012.85
2018-09-04T11:43:47.776Z,1012.82
2018-09-04T11:44:47.709Z,1012.81
2018-09-04T11:45:47.708Z,1012.79
2018-09-04T11:46:47.679Z,1012.80
2018-09-04T11:47:47.655Z,1012.80
2018-09-04T11:48:47.680Z,1012.80
2018-09-04T11:49:47.621Z,1012.79
2018-09-04T11:50:47.596Z,1012.80
2018-09-04T11:51:47.581Z,1012.82
2018-09-04T11:52:47.559Z,1012.83
2018-09-04T11:53:47.874Z,1012.80
2018-09-04T11:54:47.524Z,1012.77
2018-09-04T11:55:48.325Z,1012.75
2018-09-04T11:56:47.481Z,1012.74
2018-09-04T11:57:47.462Z,1012.75
2018-09-04T11:58:47.496Z,1012.75
2018-09-04T11:59:48.321Z,1012.78
2018-09-04T12:00:47.409Z,1012.84
2018-09-04T12:01:47.386Z,1012.79
2018-09-04T12:02:47.371Z,1012.78
2018-09-04T12:03:47.392Z,1012.77
2018-09-04T12:04:47.383Z,1012.78